sensor_id;sensor_type;location;lat;lon;timestamp;P1;durP1;ratioP1;P2;durP2;ratioP2
4533;SDS011;2279;51.448;7.306;2023-04-15T00:01:07;15.63;;;8.13;;
4533;SDS011;2279;51.448;7.306;2023-04-15T00:03:34;12.63;;;8.23;;
4533;SDS011;2279;51.448;7.306;2023-04-15T00:06:00;10.23;;;8.87;;
4533;SDS011;2279;51.448;7.306;2023-04-15T00:08:27;14.50;;;10.30;;
4533;SDS011;2279;51.448;7.306;2023-04-15T00:10:54;11.23;;;8.83;;
4533;SDS011;2279;51.448;7.306;2023-04-15T00:13:20;12.33;;;8.60;;
4533;SDS011;2279;51.448;7.306;2023-04-15T00:15:46;13.37;;;8.13;;
4533;SDS011;2279;51.448;7.306;2023-04-15T00:18:12;18.70;;;8.57;;
4533;SDS011;2279;51.448;7.306;2023-04-15T00:20:38;13.40;;;9.47;;
4533;SDS011;2279;51.448;7.306;2023-04-15T00:23:04;12.50;;;9.70;;
4533;SDS011;2279;51.448;7.306;2023-04-15T00:25:30;12.57;;;8.13;;
4533;SDS011;2279;51.448;7.306;2023-04-15T00:27:56;11.80;;;9.20;;
4533;SDS011;2279;51.448;7.306;2023-04-15T00:30:22;13.40;;;9.73;;
4533;SDS011;2279;51.448;7.306;2023-04-15T00:32:49;13.40;;;9.23;;
4533;SDS011;2279;51.448;7.306;2023-04-15T00:35:15;17.90;;;8.30;;
4533;SDS011;2279;51.448;7.306;2023-04-15T00:37:42;12.77;;;8.23;;
4533;SDS011;2279;51.448;7.306;2023-04-15T00:40:09;9.83;;;8.40;;
4533;SDS011;2279;51.448;7.306;2023-04-15T00:42:36;11.23;;;8.60;;
4533;SDS011;2279;51.448;7.306;2023-04-15T00:45:02;10.43;;;9.33;;
4533;SDS011;2279;51.448;7.306;2023-04-15T00:47:29;13.97;;;9.40;;
4533;SDS011;2279;51.448;7.306;2023-04-15T00:49:56;16.13;;;10.27;;
4533;SDS011;2279;51.448;7.306;2023-04-15T00:52:22;10.20;;;9.20;;
4533;SDS011;2279;51.448;7.306;2023-04-15T00:54:48;13.70;;;11.27;;
4533;SDS011;2279;51.448;7.306;2023-04-15T00:57:15;15.63;;;9.37;;
4533;SDS011;2279;51.448;7.306;2023-04-15T00:59:41;12.27;;;8.73;;
4533;SDS011;2279;51.448;7.306;2023-04-15T01:02:07;12.30;;;9.30;;
4533;SDS011;2279;51.448;7.306;2023-04-15T01:04:33;15.53;;;10.57;;
4533;SDS011;2279;51.448;7.306;2023-04-15T01:06:59;14.33;;;10.00;;
4533;SDS011;2279;51.448;7.306;2023-04-15T01:09:25;11.77;;;10.50;;
4533;SDS011;2279;51.448;7.306;2023-04-15T01:11:51;16.77;;;9.75;;
4533;SDS011;2279;51.448;7.306;2023-04-15T01:14:18;16.33;;;10.07;;
4533;SDS011;2279;51.448;7.306;2023-04-15T01:16:44;15.00;;;10.10;;
4533;SDS011;2279;51.448;7.306;2023-04-15T01:19:10;13.77;;;10.48;;
4533;SDS011;2279;51.448;7.306;2023-04-15T01:21:39;17.17;;;11.00;;
4533;SDS011;2279;51.448;7.306;2023-04-15T01:24:08;13.73;;;9.45;;
4533;SDS011;2279;51.448;7.306;2023-04-15T01:26:36;11.00;;;9.25;;
4533;SDS011;2279;51.448;7.306;2023-04-15T01:29:02;13.77;;;10.33;;
4533;SDS011;2279;51.448;7.306;2023-04-15T01:31:28;13.65;;;9.73;;
4533;SDS011;2279;51.448;7.306;2023-04-15T01:33:54;15.48;;;10.27;;
4533;SDS011;2279;51.448;7.306;2023-04-15T01:36:20;14.70;;;10.47;;
4533;SDS011;2279;51.448;7.306;2023-04-15T01:38:46;18.70;;;9.45;;
4533;SDS011;2279;51.448;7.306;2023-04-15T01:41:13;11.98;;;10.07;;
4533;SDS011;2279;51.448;7.306;2023-04-15T01:43:39;19.48;;;10.65;;
4533;SDS011;2279;51.448;7.306;2023-04-15T01:46:05;13.00;;;10.63;;
4533;SDS011;2279;51.448;7.306;2023-04-15T01:48:31;15.97;;;11.27;;
4533;SDS011;2279;51.448;7.306;2023-04-15T01:50:57;13.95;;;10.07;;
4533;SDS011;2279;51.448;7.306;2023-04-15T01:53:24;16.38;;;10.60;;
4533;SDS011;2279;51.448;7.306;2023-04-15T01:55:50;19.00;;;11.30;;
4533;SDS011;2279;51.448;7.306;2023-04-15T01:58:17;11.52;;;10.32;;
4533;SDS011;2279;51.448;7.306;2023-04-15T02:00:43;17.20;;;11.35;;
4533;SDS011;2279;51.448;7.306;2023-04-15T02:03:09;12.75;;;10.70;;
4533;SDS011;2279;51.448;7.306;2023-04-15T02:05:35;13.88;;;10.05;;
4533;SDS011;2279;51.448;7.306;2023-04-15T02:08:01;13.10;;;9.83;;
4533;SDS011;2279;51.448;7.306;2023-04-15T02:10:27;10.20;;;8.75;;
4533;SDS011;2279;51.448;7.306;2023-04-15T02:12:53;19.25;;;9.93;;
4533;SDS011;2279;51.448;7.306;2023-04-15T02:15:19;13.40;;;9.37;;
4533;SDS011;2279;51.448;7.306;2023-04-15T02:17:45;16.60;;;9.80;;
4533;SDS011;2279;51.448;7.306;2023-04-15T02:20:14;11.77;;;9.07;;
4533;SDS011;2279;51.448;7.306;2023-04-15T02:22:40;15.27;;;10.95;;
4533;SDS011;2279;51.448;7.306;2023-04-15T02:25:07;19.02;;;10.30;;
4533;SDS011;2279;51.448;7.306;2023-04-15T02:27:34;18.13;;;9.73;;
4533;SDS011;2279;51.448;7.306;2023-04-15T02:30:00;13.48;;;9.90;;
4533;SDS011;2279;51.448;7.306;2023-04-15T02:32:26;17.20;;;11.50;;
4533;SDS011;2279;51.448;7.306;2023-04-15T02:34:53;16.98;;;11.25;;
4533;SDS011;2279;51.448;7.306;2023-04-15T02:37:18;13.83;;;11.13;;
4533;SDS011;2279;51.448;7.306;2023-04-15T02:39:45;12.00;;;9.93;;
4533;SDS011;2279;51.448;7.306;2023-04-15T02:42:11;18.00;;;11.32;;
4533;SDS011;2279;51.448;7.306;2023-04-15T02:44:37;13.25;;;9.73;;
4533;SDS011;2279;51.448;7.306;2023-04-15T02:47:03;14.55;;;11.60;;
4533;SDS011;2279;51.448;7.306;2023-04-15T02:49:31;11.60;;;10.40;;
4533;SDS011;2279;51.448;7.306;2023-04-15T02:51:57;14.32;;;10.80;;
4533;SDS011;2279;51.448;7.306;2023-04-15T02:54:24;16.00;;;9.75;;
4533;SDS011;2279;51.448;7.306;2023-04-15T02:56:52;15.43;;;10.82;;
4533;SDS011;2279;51.448;7.306;2023-04-15T02:59:20;13.80;;;10.65;;
4533;SDS011;2279;51.448;7.306;2023-04-15T03:01:46;22.48;;;11.02;;
4533;SDS011;2279;51.448;7.306;2023-04-15T03:04:12;16.30;;;11.60;;
4533;SDS011;2279;51.448;7.306;2023-04-15T03:06:38;15.35;;;10.82;;
4533;SDS011;2279;51.448;7.306;2023-04-15T03:09:04;17.42;;;11.57;;
4533;SDS011;2279;51.448;7.306;2023-04-15T03:11:30;19.17;;;10.97;;
4533;SDS011;2279;51.448;7.306;2023-04-15T03:13:57;12.93;;;9.98;;
4533;SDS011;2279;51.448;7.306;2023-04-15T03:16:23;18.97;;;10.37;;
4533;SDS011;2279;51.448;7.306;2023-04-15T03:18:49;13.57;;;9.90;;
4533;SDS011;2279;51.448;7.306;2023-04-15T03:21:15;15.50;;;11.27;;
4533;SDS011;2279;51.448;7.306;2023-04-15T03:23:42;14.60;;;10.20;;
4533;SDS011;2279;51.448;7.306;2023-04-15T03:26:08;17.75;;;10.95;;
4533;SDS011;2279;51.448;7.306;2023-04-15T03:28:33;16.00;;;10.60;;
4533;SDS011;2279;51.448;7.306;2023-04-15T03:30:59;14.17;;;10.00;;
4533;SDS011;2279;51.448;7.306;2023-04-15T03:33:25;13.57;;;9.43;;
4533;SDS011;2279;51.448;7.306;2023-04-15T03:35:51;14.53;;;11.13;;
4533;SDS011;2279;51.448;7.306;2023-04-15T03:38:17;13.88;;;9.93;;
4533;SDS011;2279;51.448;7.306;2023-04-15T03:40:44;13.40;;;10.23;;
4533;SDS011;2279;51.448;7.306;2023-04-15T03:43:10;18.73;;;11.48;;
4533;SDS011;2279;51.448;7.306;2023-04-15T03:45:36;16.60;;;11.47;;
4533;SDS011;2279;51.448;7.306;2023-04-15T03:48:02;23.00;;;12.40;;
4533;SDS011;2279;51.448;7.306;2023-04-15T03:50:28;18.50;;;13.55;;
4533;SDS011;2279;51.448;7.306;2023-04-15T03:52:54;19.50;;;13.17;;
4533;SDS011;2279;51.448;7.306;2023-04-15T03:55:20;18.47;;;13.37;;
4533;SDS011;2279;51.448;7.306;2023-04-15T03:57:46;24.00;;;14.53;;
4533;SDS011;2279;51.448;7.306;2023-04-15T04:00:12;17.67;;;12.87;;
4533;SDS011;2279;51.448;7.306;2023-04-15T04:02:38;19.00;;;13.80;;
4533;SDS011;2279;51.448;7.306;2023-04-15T04:05:04;15.85;;;11.82;;
4533;SDS011;2279;51.448;7.306;2023-04-15T04:07:30;23.10;;;14.38;;
4533;SDS011;2279;51.448;7.306;2023-04-15T04:09:56;19.70;;;13.33;;
4533;SDS011;2279;51.448;7.306;2023-04-15T04:12:22;17.30;;;13.85;;
4533;SDS011;2279;51.448;7.306;2023-04-15T04:14:48;17.47;;;12.90;;
4533;SDS011;2279;51.448;7.306;2023-04-15T04:17:14;16.23;;;12.27;;
4533;SDS011;2279;51.448;7.306;2023-04-15T04:19:40;18.47;;;13.57;;
4533;SDS011;2279;51.448;7.306;2023-04-15T04:22:06;20.53;;;12.70;;
4533;SDS011;2279;51.448;7.306;2023-04-15T04:24:32;20.53;;;13.80;;
4533;SDS011;2279;51.448;7.306;2023-04-15T04:26:58;17.67;;;12.40;;
4533;SDS011;2279;51.448;7.306;2023-04-15T04:29:24;16.38;;;12.05;;
4533;SDS011;2279;51.448;7.306;2023-04-15T04:31:51;17.13;;;12.65;;
4533;SDS011;2279;51.448;7.306;2023-04-15T04:34:17;20.47;;;13.97;;
4533;SDS011;2279;51.448;7.306;2023-04-15T04:36:42;18.70;;;13.43;;
4533;SDS011;2279;51.448;7.306;2023-04-15T04:39:08;17.70;;;13.73;;
4533;SDS011;2279;51.448;7.306;2023-04-15T04:41:34;17.10;;;12.95;;
4533;SDS011;2279;51.448;7.306;2023-04-15T04:44:00;17.93;;;14.63;;
4533;SDS011;2279;51.448;7.306;2023-04-15T04:46:27;19.27;;;13.40;;
4533;SDS011;2279;51.448;7.306;2023-04-15T04:48:53;22.48;;;13.98;;
4533;SDS011;2279;51.448;7.306;2023-04-15T04:51:19;21.48;;;15.52;;
4533;SDS011;2279;51.448;7.306;2023-04-15T04:53:45;19.10;;;12.50;;
4533;SDS011;2279;51.448;7.306;2023-04-15T04:56:11;19.40;;;13.17;;
4533;SDS011;2279;51.448;7.306;2023-04-15T04:58:37;17.47;;;12.90;;
4533;SDS011;2279;51.448;7.306;2023-04-15T05:01:03;17.73;;;12.97;;
4533;SDS011;2279;51.448;7.306;2023-04-15T05:03:29;25.10;;;17.10;;
4533;SDS011;2279;51.448;7.306;2023-04-15T05:05:55;20.55;;;14.27;;
4533;SDS011;2279;51.448;7.306;2023-04-15T05:08:21;21.88;;;13.95;;
4533;SDS011;2279;51.448;7.306;2023-04-15T05:10:47;18.10;;;13.53;;
4533;SDS011;2279;51.448;7.306;2023-04-15T05:13:13;19.70;;;13.27;;
4533;SDS011;2279;51.448;7.306;2023-04-15T05:15:39;21.93;;;13.50;;
4533;SDS011;2279;51.448;7.306;2023-04-15T05:18:07;19.00;;;14.10;;
4533;SDS011;2279;51.448;7.306;2023-04-15T05:20:33;20.83;;;13.70;;
4533;SDS011;2279;51.448;7.306;2023-04-15T05:22:59;20.77;;;13.25;;
4533;SDS011;2279;51.448;7.306;2023-04-15T05:25:25;17.97;;;13.87;;
4533;SDS011;2279;51.448;7.306;2023-04-15T05:27:51;15.63;;;12.40;;
4533;SDS011;2279;51.448;7.306;2023-04-15T05:30:16;18.47;;;12.80;;
4533;SDS011;2279;51.448;7.306;2023-04-15T05:32:42;18.50;;;12.93;;
4533;SDS011;2279;51.448;7.306;2023-04-15T05:35:08;22.60;;;13.90;;
4533;SDS011;2279;51.448;7.306;2023-04-15T05:37:34;17.70;;;12.90;;
4533;SDS011;2279;51.448;7.306;2023-04-15T05:40:00;18.42;;;13.25;;
4533;SDS011;2279;51.448;7.306;2023-04-15T05:42:28;16.48;;;12.65;;
4533;SDS011;2279;51.448;7.306;2023-04-15T05:44:54;19.35;;;13.23;;
4533;SDS011;2279;51.448;7.306;2023-04-15T05:47:20;16.60;;;12.93;;
4533;SDS011;2279;51.448;7.306;2023-04-15T05:49:46;19.40;;;13.07;;
4533;SDS011;2279;51.448;7.306;2023-04-15T05:52:12;17.40;;;12.97;;
4533;SDS011;2279;51.448;7.306;2023-04-15T05:54:38;19.10;;;13.40;;
4533;SDS011;2279;51.448;7.306;2023-04-15T05:57:04;15.73;;;12.70;;
4533;SDS011;2279;51.448;7.306;2023-04-15T05:59:30;14.75;;;12.10;;
4533;SDS011;2279;51.448;7.306;2023-04-15T06:01:56;16.45;;;12.02;;
4533;SDS011;2279;51.448;7.306;2023-04-15T06:04:22;19.60;;;12.53;;
4533;SDS011;2279;51.448;7.306;2023-04-15T06:06:48;16.13;;;12.03;;
4533;SDS011;2279;51.448;7.306;2023-04-15T06:09:14;18.98;;;12.07;;
4533;SDS011;2279;51.448;7.306;2023-04-15T06:11:40;16.75;;;13.25;;
4533;SDS011;2279;51.448;7.306;2023-04-15T06:14:06;16.13;;;13.05;;
4533;SDS011;2279;51.448;7.306;2023-04-15T06:16:32;19.20;;;13.53;;
4533;SDS011;2279;51.448;7.306;2023-04-15T06:19:00;19.83;;;12.80;;
4533;SDS011;2279;51.448;7.306;2023-04-15T06:21:26;18.80;;;12.20;;
4533;SDS011;2279;51.448;7.306;2023-04-15T06:23:52;19.17;;;13.37;;
4533;SDS011;2279;51.448;7.306;2023-04-15T06:26:18;17.75;;;12.20;;
4533;SDS011;2279;51.448;7.306;2023-04-15T06:28:44;22.90;;;13.70;;
4533;SDS011;2279;51.448;7.306;2023-04-15T06:31:10;15.63;;;12.70;;
4533;SDS011;2279;51.448;7.306;2023-04-15T06:33:36;19.07;;;13.37;;
4533;SDS011;2279;51.448;7.306;2023-04-15T06:36:03;19.08;;;13.65;;
4533;SDS011;2279;51.448;7.306;2023-04-15T06:38:29;19.93;;;12.90;;
4533;SDS011;2279;51.448;7.306;2023-04-15T06:40:55;20.23;;;12.53;;
4533;SDS011;2279;51.448;7.306;2023-04-15T06:43:21;19.20;;;12.70;;
4533;SDS011;2279;51.448;7.306;2023-04-15T06:45:48;16.00;;;11.60;;
4533;SDS011;2279;51.448;7.306;2023-04-15T06:48:14;18.83;;;13.33;;
4533;SDS011;2279;51.448;7.306;2023-04-15T06:50:41;19.00;;;14.67;;
4533;SDS011;2279;51.448;7.306;2023-04-15T06:53:07;17.23;;;13.93;;
4533;SDS011;2279;51.448;7.306;2023-04-15T06:55:33;17.70;;;13.67;;
4533;SDS011;2279;51.448;7.306;2023-04-15T06:57:59;19.30;;;14.40;;
4533;SDS011;2279;51.448;7.306;2023-04-15T07:00:25;20.57;;;14.80;;
4533;SDS011;2279;51.448;7.306;2023-04-15T07:02:52;21.77;;;16.87;;
4533;SDS011;2279;51.448;7.306;2023-04-15T07:05:19;17.17;;;13.00;;
4533;SDS011;2279;51.448;7.306;2023-04-15T07:07:45;19.27;;;13.67;;
4533;SDS011;2279;51.448;7.306;2023-04-15T07:10:11;27.13;;;17.50;;
4533;SDS011;2279;51.448;7.306;2023-04-15T07:12:38;18.67;;;13.37;;
4533;SDS011;2279;51.448;7.306;2023-04-15T07:15:05;17.43;;;12.90;;
4533;SDS011;2279;51.448;7.306;2023-04-15T07:17:31;17.00;;;13.30;;
4533;SDS011;2279;51.448;7.306;2023-04-15T07:19:58;16.37;;;12.70;;
4533;SDS011;2279;51.448;7.306;2023-04-15T07:22:24;17.00;;;14.67;;
4533;SDS011;2279;51.448;7.306;2023-04-15T07:24:50;14.27;;;11.97;;
4533;SDS011;2279;51.448;7.306;2023-04-15T07:27:16;18.40;;;12.97;;
4533;SDS011;2279;51.448;7.306;2023-04-15T07:29:42;20.00;;;13.43;;
4533;SDS011;2279;51.448;7.306;2023-04-15T07:32:08;20.70;;;14.03;;
4533;SDS011;2279;51.448;7.306;2023-04-15T07:34:34;17.80;;;11.70;;
4533;SDS011;2279;51.448;7.306;2023-04-15T07:37:01;14.77;;;11.30;;
4533;SDS011;2279;51.448;7.306;2023-04-15T07:39:27;14.97;;;12.67;;
4533;SDS011;2279;51.448;7.306;2023-04-15T07:41:53;15.37;;;10.60;;
4533;SDS011;2279;51.448;7.306;2023-04-15T07:44:20;15.03;;;11.23;;
4533;SDS011;2279;51.448;7.306;2023-04-15T07:46:46;17.67;;;11.20;;
4533;SDS011;2279;51.448;7.306;2023-04-15T07:49:12;17.70;;;11.63;;
4533;SDS011;2279;51.448;7.306;2023-04-15T07:51:38;17.97;;;11.03;;
4533;SDS011;2279;51.448;7.306;2023-04-15T07:54:04;15.10;;;11.30;;
4533;SDS011;2279;51.448;7.306;2023-04-15T07:56:30;20.07;;;11.73;;
4533;SDS011;2279;51.448;7.306;2023-04-15T07:58:56;21.20;;;11.20;;
4533;SDS011;2279;51.448;7.306;2023-04-15T08:01:22;18.10;;;11.63;;
4533;SDS011;2279;51.448;7.306;2023-04-15T08:03:48;13.80;;;11.03;;
4533;SDS011;2279;51.448;7.306;2023-04-15T08:06:14;17.67;;;11.47;;
4533;SDS011;2279;51.448;7.306;2023-04-15T08:08:40;15.23;;;10.33;;
4533;SDS011;2279;51.448;7.306;2023-04-15T08:11:07;13.27;;;10.67;;
4533;SDS011;2279;51.448;7.306;2023-04-15T08:13:33;12.93;;;9.23;;
4533;SDS011;2279;51.448;7.306;2023-04-15T08:18:43;13.07;;;10.40;;
4533;SDS011;2279;51.448;7.306;2023-04-15T08:21:10;16.37;;;10.40;;
4533;SDS011;2279;51.448;7.306;2023-04-15T08:23:36;10.87;;;8.90;;
4533;SDS011;2279;51.448;7.306;2023-04-15T08:26:03;13.50;;;9.60;;
4533;SDS011;2279;51.448;7.306;2023-04-15T08:28:29;15.67;;;9.00;;
4533;SDS011;2279;51.448;7.306;2023-04-15T08:30:55;10.67;;;7.97;;
4533;SDS011;2279;51.448;7.306;2023-04-15T08:33:21;8.73;;;6.83;;
4533;SDS011;2279;51.448;7.306;2023-04-15T08:35:47;9.30;;;6.97;;
4533;SDS011;2279;51.448;7.306;2023-04-15T08:38:13;7.70;;;6.30;;
4533;SDS011;2279;51.448;7.306;2023-04-15T08:40:40;8.00;;;6.07;;
4533;SDS011;2279;51.448;7.306;2023-04-15T08:43:08;10.37;;;6.60;;
4533;SDS011;2279;51.448;7.306;2023-04-15T08:45:34;6.60;;;6.00;;
4533;SDS011;2279;51.448;7.306;2023-04-15T08:48:00;7.03;;;6.23;;
4533;SDS011;2279;51.448;7.306;2023-04-15T08:50:28;6.80;;;5.97;;
4533;SDS011;2279;51.448;7.306;2023-04-15T08:52:57;6.50;;;5.10;;
4533;SDS011;2279;51.448;7.306;2023-04-15T08:55:24;6.20;;;5.60;;
4533;SDS011;2279;51.448;7.306;2023-04-15T08:57:51;7.23;;;5.70;;
4533;SDS011;2279;51.448;7.306;2023-04-15T09:00:17;6.33;;;5.53;;
4533;SDS011;2279;51.448;7.306;2023-04-15T09:02:43;7.90;;;6.37;;
4533;SDS011;2279;51.448;7.306;2023-04-15T09:05:09;10.20;;;6.27;;
4533;SDS011;2279;51.448;7.306;2023-04-15T09:07:35;8.10;;;5.90;;
4533;SDS011;2279;51.448;7.306;2023-04-15T09:10:02;5.90;;;5.30;;
4533;SDS011;2279;51.448;7.306;2023-04-15T09:12:28;7.20;;;5.43;;
4533;SDS011;2279;51.448;7.306;2023-04-15T09:14:55;8.27;;;5.37;;
4533;SDS011;2279;51.448;7.306;2023-04-15T09:17:22;7.53;;;5.47;;
4533;SDS011;2279;51.448;7.306;2023-04-15T09:19:58;6.27;;;5.10;;
4533;SDS011;2279;51.448;7.306;2023-04-15T09:22:32;7.37;;;5.97;;
4533;SDS011;2279;51.448;7.306;2023-04-15T09:24:58;7.33;;;5.57;;
4533;SDS011;2279;51.448;7.306;2023-04-15T09:27:24;5.37;;;4.87;;
4533;SDS011;2279;51.448;7.306;2023-04-15T09:29:50;6.43;;;5.30;;
4533;SDS011;2279;51.448;7.306;2023-04-15T09:32:18;6.10;;;5.50;;
4533;SDS011;2279;51.448;7.306;2023-04-15T09:34:47;6.63;;;5.80;;
4533;SDS011;2279;51.448;7.306;2023-04-15T09:37:13;7.97;;;6.80;;
4533;SDS011;2279;51.448;7.306;2023-04-15T09:39:49;6.23;;;5.63;;
4533;SDS011;2279;51.448;7.306;2023-04-15T09:42:16;6.50;;;6.00;;
4533;SDS011;2279;51.448;7.306;2023-04-15T09:44:48;7.40;;;6.20;;
4533;SDS011;2279;51.448;7.306;2023-04-15T09:47:29;8.07;;;6.83;;
4533;SDS011;2279;51.448;7.306;2023-04-15T09:49:56;7.03;;;6.10;;
4533;SDS011;2279;51.448;7.306;2023-04-15T09:52:22;8.67;;;7.23;;
4533;SDS011;2279;51.448;7.306;2023-04-15T09:54:50;7.40;;;6.60;;
4533;SDS011;2279;51.448;7.306;2023-04-15T09:57:17;6.30;;;5.70;;
4533;SDS011;2279;51.448;7.306;2023-04-15T09:59:43;6.97;;;6.20;;
4533;SDS011;2279;51.448;7.306;2023-04-15T10:02:09;7.10;;;6.37;;
4533;SDS011;2279;51.448;7.306;2023-04-15T10:04:39;6.80;;;6.00;;
4533;SDS011;2279;51.448;7.306;2023-04-15T10:07:05;7.43;;;6.30;;
4533;SDS011;2279;51.448;7.306;2023-04-15T10:09:34;8.13;;;7.10;;
4533;SDS011;2279;51.448;7.306;2023-04-15T10:12:01;7.57;;;6.87;;
4533;SDS011;2279;51.448;7.306;2023-04-15T10:14:28;6.90;;;6.20;;
4533;SDS011;2279;51.448;7.306;2023-04-15T10:16:56;6.60;;;5.87;;
4533;SDS011;2279;51.448;7.306;2023-04-15T10:19:23;6.80;;;5.50;;
4533;SDS011;2279;51.448;7.306;2023-04-15T10:21:51;10.43;;;7.10;;
4533;SDS011;2279;51.448;7.306;2023-04-15T10:24:18;14.60;;;9.20;;
4533;SDS011;2279;51.448;7.306;2023-04-15T10:26:44;10.10;;;9.10;;
4533;SDS011;2279;51.448;7.306;2023-04-15T10:29:10;11.60;;;8.33;;
4533;SDS011;2279;51.448;7.306;2023-04-15T10:31:36;10.20;;;8.00;;
4533;SDS011;2279;51.448;7.306;2023-04-15T10:34:03;8.73;;;7.80;;
4533;SDS011;2279;51.448;7.306;2023-04-15T10:36:30;9.60;;;7.80;;
4533;SDS011;2279;51.448;7.306;2023-04-15T10:38:57;10.27;;;8.67;;
4533;SDS011;2279;51.448;7.306;2023-04-15T10:41:26;10.20;;;8.10;;
4533;SDS011;2279;51.448;7.306;2023-04-15T10:46:35;12.23;;;8.50;;
4533;SDS011;2279;51.448;7.306;2023-04-15T10:49:05;8.03;;;7.23;;
4533;SDS011;2279;51.448;7.306;2023-04-15T10:51:32;7.67;;;6.40;;
4533;SDS011;2279;51.448;7.306;2023-04-15T10:53:58;9.47;;;7.20;;
4533;SDS011;2279;51.448;7.306;2023-04-15T10:56:24;10.60;;;7.27;;
4533;SDS011;2279;51.448;7.306;2023-04-15T10:58:50;7.40;;;6.40;;
4533;SDS011;2279;51.448;7.306;2023-04-15T11:01:18;7.60;;;6.27;;
4533;SDS011;2279;51.448;7.306;2023-04-15T11:03:47;7.90;;;6.87;;
4533;SDS011;2279;51.448;7.306;2023-04-15T11:06:13;7.83;;;5.83;;
4533;SDS011;2279;51.448;7.306;2023-04-15T11:08:52;8.70;;;6.20;;
4533;SDS011;2279;51.448;7.306;2023-04-15T11:11:18;7.83;;;6.17;;
4533;SDS011;2279;51.448;7.306;2023-04-15T11:13:48;6.47;;;5.13;;
4533;SDS011;2279;51.448;7.306;2023-04-15T11:16:14;6.73;;;6.07;;
4533;SDS011;2279;51.448;7.306;2023-04-15T11:18:40;8.13;;;5.10;;
4533;SDS011;2279;51.448;7.306;2023-04-15T11:21:07;6.90;;;5.57;;
4533;SDS011;2279;51.448;7.306;2023-04-15T11:23:39;5.63;;;5.03;;
4533;SDS011;2279;51.448;7.306;2023-04-15T11:26:10;6.60;;;5.90;;
4533;SDS011;2279;51.448;7.306;2023-04-15T11:28:37;22.00;;;19.70;;
4533;SDS011;2279;51.448;7.306;2023-04-15T11:31:05;12.90;;;8.90;;
4533;SDS011;2279;51.448;7.306;2023-04-15T11:33:32;6.40;;;5.13;;
4533;SDS011;2279;51.448;7.306;2023-04-15T11:35:58;7.00;;;6.20;;
4533;SDS011;2279;51.448;7.306;2023-04-15T11:38:24;7.87;;;6.10;;
4533;SDS011;2279;51.448;7.306;2023-04-15T11:40:50;10.27;;;6.13;;
4533;SDS011;2279;51.448;7.306;2023-04-15T11:43:17;7.33;;;6.10;;
4533;SDS011;2279;51.448;7.306;2023-04-15T11:48:23;6.23;;;5.63;;
4533;SDS011;2279;51.448;7.306;2023-04-15T11:50:56;7.20;;;5.27;;
4533;SDS011;2279;51.448;7.306;2023-04-15T11:53:22;7.03;;;6.30;;
4533;SDS011;2279;51.448;7.306;2023-04-15T11:55:50;8.17;;;6.50;;
4533;SDS011;2279;51.448;7.306;2023-04-15T12:00:46;10.13;;;6.50;;
4533;SDS011;2279;51.448;7.306;2023-04-15T12:08:23;10.40;;;6.40;;
4533;SDS011;2279;51.448;7.306;2023-04-15T12:10:49;8.33;;;6.07;;
4533;SDS011;2279;51.448;7.306;2023-04-15T12:13:15;6.00;;;5.40;;
4533;SDS011;2279;51.448;7.306;2023-04-15T12:15:41;8.00;;;5.80;;
4533;SDS011;2279;51.448;7.306;2023-04-15T12:18:15;8.70;;;5.93;;
4533;SDS011;2279;51.448;7.306;2023-04-15T12:20:44;7.43;;;6.23;;
4533;SDS011;2279;51.448;7.306;2023-04-15T12:23:10;6.13;;;5.50;;
4533;SDS011;2279;51.448;7.306;2023-04-15T12:25:36;7.37;;;6.30;;
4533;SDS011;2279;51.448;7.306;2023-04-15T12:28:09;7.73;;;6.20;;
4533;SDS011;2279;51.448;7.306;2023-04-15T12:30:35;9.43;;;6.50;;
4533;SDS011;2279;51.448;7.306;2023-04-15T12:33:01;7.93;;;6.53;;
4533;SDS011;2279;51.448;7.306;2023-04-15T12:35:27;8.07;;;6.50;;
4533;SDS011;2279;51.448;7.306;2023-04-15T12:37:53;6.07;;;5.47;;
4533;SDS011;2279;51.448;7.306;2023-04-15T12:40:19;8.53;;;5.87;;
4533;SDS011;2279;51.448;7.306;2023-04-15T12:42:45;7.70;;;6.23;;
4533;SDS011;2279;51.448;7.306;2023-04-15T12:45:11;5.87;;;5.13;;
4533;SDS011;2279;51.448;7.306;2023-04-15T12:47:37;6.47;;;5.77;;
4533;SDS011;2279;51.448;7.306;2023-04-15T12:50:03;9.00;;;6.53;;
4533;SDS011;2279;51.448;7.306;2023-04-15T12:52:29;7.33;;;6.23;;
4533;SDS011;2279;51.448;7.306;2023-04-15T12:54:55;7.37;;;6.30;;
4533;SDS011;2279;51.448;7.306;2023-04-15T12:57:21;6.73;;;5.67;;
4533;SDS011;2279;51.448;7.306;2023-04-15T12:59:47;7.03;;;6.33;;
4533;SDS011;2279;51.448;7.306;2023-04-15T13:02:13;6.43;;;5.67;;
4533;SDS011;2279;51.448;7.306;2023-04-15T13:04:39;8.53;;;6.20;;
4533;SDS011;2279;51.448;7.306;2023-04-15T13:07:05;6.67;;;4.90;;
4533;SDS011;2279;51.448;7.306;2023-04-15T13:09:31;6.13;;;5.50;;
4533;SDS011;2279;51.448;7.306;2023-04-15T13:11:57;5.50;;;5.00;;
4533;SDS011;2279;51.448;7.306;2023-04-15T13:14:24;8.90;;;5.77;;
4533;SDS011;2279;51.448;7.306;2023-04-15T13:16:51;7.03;;;5.70;;
4533;SDS011;2279;51.448;7.306;2023-04-15T13:19:17;6.83;;;6.13;;
4533;SDS011;2279;51.448;7.306;2023-04-15T13:21:43;8.53;;;5.80;;
4533;SDS011;2279;51.448;7.306;2023-04-15T13:24:10;8.03;;;5.30;;
4533;SDS011;2279;51.448;7.306;2023-04-15T13:26:35;6.67;;;4.70;;
4533;SDS011;2279;51.448;7.306;2023-04-15T13:29:01;5.60;;;5.10;;
4533;SDS011;2279;51.448;7.306;2023-04-15T13:31:27;6.77;;;4.90;;
4533;SDS011;2279;51.448;7.306;2023-04-15T13:33:53;5.07;;;4.57;;
4533;SDS011;2279;51.448;7.306;2023-04-15T13:36:19;5.47;;;4.33;;
4533;SDS011;2279;51.448;7.306;2023-04-15T13:38:45;5.77;;;5.17;;
4533;SDS011;2279;51.448;7.306;2023-04-15T13:41:11;6.73;;;5.43;;
4533;SDS011;2279;51.448;7.306;2023-04-15T13:43:37;5.60;;;4.93;;
4533;SDS011;2279;51.448;7.306;2023-04-15T13:46:03;5.60;;;5.10;;
4533;SDS011;2279;51.448;7.306;2023-04-15T13:48:29;5.57;;;4.87;;
4533;SDS011;2279;51.448;7.306;2023-04-15T13:50:55;6.00;;;5.40;;
4533;SDS011;2279;51.448;7.306;2023-04-15T13:53:21;7.33;;;4.87;;
4533;SDS011;2279;51.448;7.306;2023-04-15T13:55:47;7.33;;;5.53;;
4533;SDS011;2279;51.448;7.306;2023-04-15T13:58:13;8.17;;;5.37;;
4533;SDS011;2279;51.448;7.306;2023-04-15T14:00:39;5.90;;;4.63;;
4533;SDS011;2279;51.448;7.306;2023-04-15T14:03:05;5.40;;;4.63;;
4533;SDS011;2279;51.448;7.306;2023-04-15T14:05:31;8.37;;;4.87;;
4533;SDS011;2279;51.448;7.306;2023-04-15T14:07:58;6.67;;;5.40;;
4533;SDS011;2279;51.448;7.306;2023-04-15T14:10:24;5.70;;;4.60;;
4533;SDS011;2279;51.448;7.306;2023-04-15T14:12:50;4.73;;;3.80;;
4533;SDS011;2279;51.448;7.306;2023-04-15T14:15:16;7.13;;;5.27;;
4533;SDS011;2279;51.448;7.306;2023-04-15T14:17:42;5.93;;;5.27;;
4533;SDS011;2279;51.448;7.306;2023-04-15T14:20:08;6.67;;;5.37;;
4533;SDS011;2279;51.448;7.306;2023-04-15T14:22:34;6.47;;;5.00;;
4533;SDS011;2279;51.448;7.306;2023-04-15T14:25:00;6.20;;;4.90;;
4533;SDS011;2279;51.448;7.306;2023-04-15T14:27:27;6.67;;;5.97;;
4533;SDS011;2279;51.448;7.306;2023-04-15T14:29:53;6.87;;;5.67;;
4533;SDS011;2279;51.448;7.306;2023-04-15T14:32:19;8.93;;;5.90;;
4533;SDS011;2279;51.448;7.306;2023-04-15T14:34:46;7.30;;;5.83;;
4533;SDS011;2279;51.448;7.306;2023-04-15T14:37:12;7.47;;;5.90;;
4533;SDS011;2279;51.448;7.306;2023-04-15T14:39:38;6.73;;;5.20;;
4533;SDS011;2279;51.448;7.306;2023-04-15T14:42:04;5.47;;;4.83;;
4533;SDS011;2279;51.448;7.306;2023-04-15T14:44:30;6.20;;;5.40;;
4533;SDS011;2279;51.448;7.306;2023-04-15T14:46:56;5.87;;;4.97;;
4533;SDS011;2279;51.448;7.306;2023-04-15T14:49:22;5.67;;;5.10;;
4533;SDS011;2279;51.448;7.306;2023-04-15T14:51:48;7.53;;;5.97;;
4533;SDS011;2279;51.448;7.306;2023-04-15T14:54:14;8.70;;;6.50;;
4533;SDS011;2279;51.448;7.306;2023-04-15T14:56:40;6.93;;;6.10;;
4533;SDS011;2279;51.448;7.306;2023-04-15T14:59:06;7.07;;;5.67;;
4533;SDS011;2279;51.448;7.306;2023-04-15T15:01:32;8.30;;;6.13;;
4533;SDS011;2279;51.448;7.306;2023-04-15T15:03:58;6.93;;;5.93;;
4533;SDS011;2279;51.448;7.306;2023-04-15T15:06:24;9.10;;;6.67;;
4533;SDS011;2279;51.448;7.306;2023-04-15T15:08:50;6.97;;;5.37;;
4533;SDS011;2279;51.448;7.306;2023-04-15T15:11:16;7.23;;;6.20;;